sensor_id;sensor_type;location;lat;lon;timestamp;temperature;humidity
63313;DHT22;49442;45.640;13.812;2022-11-04T00:01:12;16.80;99.90
63313;DHT22;49442;45.640;13.812;2022-11-04T00:03:38;16.80;99.90
63313;DHT22;49442;45.640;13.812;2022-11-04T00:06:03;16.80;99.90
63313;DHT22;49442;45.640;13.812;2022-11-04T00:08:29;16.80;99.90
63313;DHT22;49442;45.640;13.812;2022-11-04T00:10:55;16.80;99.90
63313;DHT22;49442;45.640;13.812;2022-11-04T00:13:39;16.80;99.90
63313;DHT22;49442;45.640;13.812;2022-11-04T00:16:05;16.80;99.90
63313;DHT22;49442;45.640;13.812;2022-11-04T00:18:49;16.80;99.90
63313;DHT22;49442;45.640;13.812;2022-11-04T00:21:15;16.90;99.90
63313;DHT22;49442;45.640;13.812;2022-11-04T00:23:59;16.90;99.90
63313;DHT22;49442;45.640;13.812;2022-11-04T00:26:43;16.80;99.90
63313;DHT22;49442;45.640;13.812;2022-11-04T00:29:28;16.90;99.90
63313;DHT22;49442;45.640;13.812;2022-11-04T00:31:53;17.00;99.90
63313;DHT22;49442;45.640;13.812;2022-11-04T00:34:37;17.00;99.90
63313;DHT22;49442;45.640;13.812;2022-11-04T00:37:02;17.00;99.90
63313;DHT22;49442;45.640;13.812;2022-11-04T00:39:28;17.00;99.90
63313;DHT22;49442;45.640;13.812;2022-11-04T00:41:54;17.00;99.90
63313;DHT22;49442;45.640;13.812;2022-11-04T00:44:19;17.10;99.90
63313;DHT22;49442;45.640;13.812;2022-11-04T00:46:45;17.10;99.90
63313;DHT22;49442;45.640;13.812;2022-11-04T00:49:10;17.10;99.90
63313;DHT22;49442;45.640;13.812;2022-11-04T00:51:37;17.10;99.90
63313;DHT22;49442;45.640;13.812;2022-11-04T00:54:02;17.10;99.90
63313;DHT22;49442;45.640;13.812;2022-11-04T00:56:28;17.10;99.90
63313;DHT22;49442;45.640;13.812;2022-11-04T00:58:54;17.10;99.90
63313;DHT22;49442;45.640;13.812;2022-11-04T01:01:19;17.10;99.90
63313;DHT22;49442;45.640;13.812;2022-11-04T01:03:45;17.20;99.90
63313;DHT22;49442;45.640;13.812;2022-11-04T01:06:11;17.20;99.90
63313;DHT22;49442;45.640;13.812;2022-11-04T01:08:37;17.10;99.90
63313;DHT22;49442;45.640;13.812;2022-11-04T01:11:03;17.10;99.90
63313;DHT22;49442;45.640;13.812;2022-11-04T01:13:29;17.10;99.90
63313;DHT22;49442;45.640;13.812;2022-11-04T01:15:58;17.10;99.90
63313;DHT22;49442;45.640;13.812;2022-11-04T01:18:23;17.10;99.90
63313;DHT22;49442;45.640;13.812;2022-11-04T01:20:49;17.10;99.90
63313;DHT22;49442;45.640;13.812;2022-11-04T01:23:14;17.20;99.90
63313;DHT22;49442;45.640;13.812;2022-11-04T01:25:40;17.20;99.90
63313;DHT22;49442;45.640;13.812;2022-11-04T01:28:06;17.20;99.90
63313;DHT22;49442;45.640;13.812;2022-11-04T01:30:31;17.20;99.90
63313;DHT22;49442;45.640;13.812;2022-11-04T01:32:57;17.20;99.90
63313;DHT22;49442;45.640;13.812;2022-11-04T01:38:06;17.20;99.90
63313;DHT22;49442;45.640;13.812;2022-11-04T01:40:39;17.20;99.90
63313;DHT22;49442;45.640;13.812;2022-11-04T01:43:14;17.20;99.90
63313;DHT22;49442;45.640;13.812;2022-11-04T01:45:41;17.30;99.90
63313;DHT22;49442;45.640;13.812;2022-11-04T01:48:12;17.30;99.90
63313;DHT22;49442;45.640;13.812;2022-11-04T01:50:39;17.20;99.90
63313;DHT22;49442;45.640;13.812;2022-11-04T01:53:05;17.30;99.90
63313;DHT22;49442;45.640;13.812;2022-11-04T01:55:33;17.30;99.90
63313;DHT22;49442;45.640;13.812;2022-11-04T01:58:03;17.20;99.90
63313;DHT22;49442;45.640;13.812;2022-11-04T02:00:29;17.20;99.90
63313;DHT22;49442;45.640;13.812;2022-11-04T02:02:59;17.20;99.90
63313;DHT22;49442;45.640;13.812;2022-11-04T02:05:26;17.30;99.90
63313;DHT22;49442;45.640;13.812;2022-11-04T02:07:54;17.30;99.90
63313;DHT22;49442;45.640;13.812;2022-11-04T02:10:21;17.30;99.90
63313;DHT22;49442;45.640;13.812;2022-11-04T02:12:47;17.30;99.90
63313;DHT22;49442;45.640;13.812;2022-11-04T02:15:17;17.30;99.90
63313;DHT22;49442;45.640;13.812;2022-11-04T02:18:00;17.20;99.90
63313;DHT22;49442;45.640;13.812;2022-11-04T02:23:18;17.10;99.90
63313;DHT22;49442;45.640;13.812;2022-11-04T02:34:00;16.90;99.90
63313;DHT22;49442;45.640;13.812;2022-11-04T02:36:38;16.90;99.90
63313;DHT22;49442;45.640;13.812;2022-11-04T02:39:19;16.80;99.90
63313;DHT22;49442;45.640;13.812;2022-11-04T02:41:55;16.80;99.90
63313;DHT22;49442;45.640;13.812;2022-11-04T02:44:26;16.70;99.90
63313;DHT22;49442;45.640;13.812;2022-11-04T02:46:59;16.70;99.90
63313;DHT22;49442;45.640;13.812;2022-11-04T02:49:26;16.70;99.90
63313;DHT22;49442;45.640;13.812;2022-11-04T02:52:01;16.60;99.90
63313;DHT22;49442;45.640;13.812;2022-11-04T02:56:58;16.50;99.90
63313;DHT22;49442;45.640;13.812;2022-11-04T02:59:27;16.50;99.90
63313;DHT22;49442;45.640;13.812;2022-11-04T03:01:53;16.50;99.90
63313;DHT22;49442;45.640;13.812;2022-11-04T03:04:21;16.40;99.90
63313;DHT22;49442;45.640;13.812;2022-11-04T03:06:48;16.40;99.90
63313;DHT22;49442;45.640;13.812;2022-11-04T03:09:15;16.30;99.90
63313;DHT22;49442;45.640;13.812;2022-11-04T03:11:43;16.30;99.90
63313;DHT22;49442;45.640;13.812;2022-11-04T03:14:13;16.30;99.90
63313;DHT22;49442;45.640;13.812;2022-11-04T03:16:41;16.20;99.90
63313;DHT22;49442;45.640;13.812;2022-11-04T03:19:15;16.20;99.90
63313;DHT22;49442;45.640;13.812;2022-11-04T03:21:46;16.10;99.90
63313;DHT22;49442;45.640;13.812;2022-11-04T03:24:11;16.00;99.90
63313;DHT22;49442;45.640;13.812;2022-11-04T03:26:42;15.90;99.90
63313;DHT22;49442;45.640;13.812;2022-11-04T03:31:42;16.00;99.90
63313;DHT22;49442;45.640;13.812;2022-11-04T03:34:09;15.90;99.90
63313;DHT22;49442;45.640;13.812;2022-11-04T03:36:35;15.80;99.90
63313;DHT22;49442;45.640;13.812;2022-11-04T03:39:00;15.80;99.90
63313;DHT22;49442;45.640;13.812;2022-11-04T03:41:29;15.80;99.90
63313;DHT22;49442;45.640;13.812;2022-11-04T03:43:57;15.80;99.90
63313;DHT22;49442;45.640;13.812;2022-11-04T03:46:22;15.80;99.90
63313;DHT22;49442;45.640;13.812;2022-11-04T03:48:50;15.80;99.90
63313;DHT22;49442;45.640;13.812;2022-11-04T03:51:16;15.80;99.90
63313;DHT22;49442;45.640;13.812;2022-11-04T03:53:41;15.90;99.90
63313;DHT22;49442;45.640;13.812;2022-11-04T04:03:55;16.00;99.90
63313;DHT22;49442;45.640;13.812;2022-11-04T04:06:25;16.00;99.90
63313;DHT22;49442;45.640;13.812;2022-11-04T04:08:53;16.00;99.90
63313;DHT22;49442;45.640;13.812;2022-11-04T04:14:02;16.00;99.90
63313;DHT22;49442;45.640;13.812;2022-11-04T04:16:31;16.00;99.90
63313;DHT22;49442;45.640;13.812;2022-11-04T04:18:58;16.10;99.90
63313;DHT22;49442;45.640;13.812;2022-11-04T04:21:34;16.10;99.90
63313;DHT22;49442;45.640;13.812;2022-11-04T04:24:02;16.10;99.90
63313;DHT22;49442;45.640;13.812;2022-11-04T04:26:47;16.10;99.90
63313;DHT22;49442;45.640;13.812;2022-11-04T04:29:33;16.20;99.90
63313;DHT22;49442;45.640;13.812;2022-11-04T04:31:59;16.30;99.90
63313;DHT22;49442;45.640;13.812;2022-11-04T04:34:30;16.30;99.90
63313;DHT22;49442;45.640;13.812;2022-11-04T04:37:14;16.30;99.90
63313;DHT22;49442;45.640;13.812;2022-11-04T04:39:44;16.40;99.90
63313;DHT22;49442;45.640;13.812;2022-11-04T04:42:32;16.40;99.90
63313;DHT22;49442;45.640;13.812;2022-11-04T04:45:35;16.40;99.90
63313;DHT22;49442;45.640;13.812;2022-11-04T04:48:02;16.50;99.90
63313;DHT22;49442;45.640;13.812;2022-11-04T04:50:30;16.50;99.90
63313;DHT22;49442;45.640;13.812;2022-11-04T04:52:57;16.60;99.90
63313;DHT22;49442;45.640;13.812;2022-11-04T04:55:24;16.60;99.90
63313;DHT22;49442;45.640;13.812;2022-11-04T04:57:49;16.60;99.90
63313;DHT22;49442;45.640;13.812;2022-11-04T05:00:16;16.60;99.90
63313;DHT22;49442;45.640;13.812;2022-11-04T05:02:42;16.50;99.90
63313;DHT22;49442;45.640;13.812;2022-11-04T05:05:08;16.60;99.90
63313;DHT22;49442;45.640;13.812;2022-11-04T05:07:34;16.60;99.90
63313;DHT22;49442;45.640;13.812;2022-11-04T05:09:59;16.60;99.90
63313;DHT22;49442;45.640;13.812;2022-11-04T05:12:25;16.60;99.90
63313;DHT22;49442;45.640;13.812;2022-11-04T05:15:10;16.60;99.90
63313;DHT22;49442;45.640;13.812;2022-11-04T05:17:36;16.60;99.90
63313;DHT22;49442;45.640;13.812;2022-11-04T05:20:01;16.60;99.90
63313;DHT22;49442;45.640;13.812;2022-11-04T05:22:27;16.60;99.90
63313;DHT22;49442;45.640;13.812;2022-11-04T05:24:53;16.60;99.90
63313;DHT22;49442;45.640;13.812;2022-11-04T05:27:18;16.60;99.90
63313;DHT22;49442;45.640;13.812;2022-11-04T05:29:44;16.60;99.90
63313;DHT22;49442;45.640;13.812;2022-11-04T05:32:09;16.60;99.90
63313;DHT22;49442;45.640;13.812;2022-11-04T05:34:35;16.70;99.90
63313;DHT22;49442;45.640;13.812;2022-11-04T05:37:00;16.70;99.90
63313;DHT22;49442;45.640;13.812;2022-11-04T05:39:26;16.70;99.90
63313;DHT22;49442;45.640;13.812;2022-11-04T05:41:52;16.80;99.90
63313;DHT22;49442;45.640;13.812;2022-11-04T05:44:17;16.80;99.90
63313;DHT22;49442;45.640;13.812;2022-11-04T05:46:43;16.80;99.90
63313;DHT22;49442;45.640;13.812;2022-11-04T05:49:08;16.80;99.90
63313;DHT22;49442;45.640;13.812;2022-11-04T05:51:34;16.80;99.90
63313;DHT22;49442;45.640;13.812;2022-11-04T05:53:59;16.80;99.90
63313;DHT22;49442;45.640;13.812;2022-11-04T05:56:25;16.80;99.90
63313;DHT22;49442;45.640;13.812;2022-11-04T05:58:50;16.80;99.90
63313;DHT22;49442;45.640;13.812;2022-11-04T06:01:32;16.80;99.90
63313;DHT22;49442;45.640;13.812;2022-11-04T06:03:58;16.80;99.90
63313;DHT22;49442;45.640;13.812;2022-11-04T06:06:25;16.80;99.90
63313;DHT22;49442;45.640;13.812;2022-11-04T06:08:50;16.80;99.90
63313;DHT22;49442;45.640;13.812;2022-11-04T06:11:16;16.80;99.90
63313;DHT22;49442;45.640;13.812;2022-11-04T06:13:42;16.80;99.90
63313;DHT22;49442;45.640;13.812;2022-11-04T06:16:07;16.80;99.90
63313;DHT22;49442;45.640;13.812;2022-11-04T06:18:33;16.70;99.90
63313;DHT22;49442;45.640;13.812;2022-11-04T06:23:42;16.70;99.90
63313;DHT22;49442;45.640;13.812;2022-11-04T06:26:08;16.70;99.90
63313;DHT22;49442;45.640;13.812;2022-11-04T06:28:34;16.80;99.90
63313;DHT22;49442;45.640;13.812;2022-11-04T06:31:00;16.80;99.90
63313;DHT22;49442;45.640;13.812;2022-11-04T06:33:27;16.80;99.90
63313;DHT22;49442;45.640;13.812;2022-11-04T06:35:56;16.80;99.90
63313;DHT22;49442;45.640;13.812;2022-11-04T06:38:24;16.80;99.90
63313;DHT22;49442;45.640;13.812;2022-11-04T06:40:49;16.80;99.90
63313;DHT22;49442;45.640;13.812;2022-11-04T06:43:15;16.80;99.90
63313;DHT22;49442;45.640;13.812;2022-11-04T06:45:40;16.80;99.90
63313;DHT22;49442;45.640;13.812;2022-11-04T06:48:06;16.80;99.90
63313;DHT22;49442;45.640;13.812;2022-11-04T06:50:32;16.80;99.90
63313;DHT22;49442;45.640;13.812;2022-11-04T06:52:57;16.90;99.90
63313;DHT22;49442;45.640;13.812;2022-11-04T06:55:23;16.90;99.90
63313;DHT22;49442;45.640;13.812;2022-11-04T06:57:52;16.90;99.90
63313;DHT22;49442;45.640;13.812;2022-11-04T07:00:17;16.90;99.90
63313;DHT22;49442;45.640;13.812;2022-11-04T07:02:43;16.80;99.90
63313;DHT22;49442;45.640;13.812;2022-11-04T07:05:08;16.90;99.90
63313;DHT22;49442;45.640;13.812;2022-11-04T07:07:34;16.90;99.90
63313;DHT22;49442;45.640;13.812;2022-11-04T07:09:59;17.00;99.90
63313;DHT22;49442;45.640;13.812;2022-11-04T07:12:25;17.00;99.90
63313;DHT22;49442;45.640;13.812;2022-11-04T07:14:50;17.00;99.90
63313;DHT22;49442;45.640;13.812;2022-11-04T07:17:16;17.00;99.90
63313;DHT22;49442;45.640;13.812;2022-11-04T07:19:42;17.10;99.90
63313;DHT22;49442;45.640;13.812;2022-11-04T07:22:07;17.10;99.90
63313;DHT22;49442;45.640;13.812;2022-11-04T07:24:33;17.10;99.90
63313;DHT22;49442;45.640;13.812;2022-11-04T07:26:58;17.10;99.90
63313;DHT22;49442;45.640;13.812;2022-11-04T07:29:24;17.20;99.90
63313;DHT22;49442;45.640;13.812;2022-11-04T07:31:50;17.20;99.90
63313;DHT22;49442;45.640;13.812;2022-11-04T07:34:15;17.20;99.90
63313;DHT22;49442;45.640;13.812;2022-11-04T07:36:41;17.20;99.90
63313;DHT22;49442;45.640;13.812;2022-11-04T07:39:06;17.20;99.90
63313;DHT22;49442;45.640;13.812;2022-11-04T07:41:32;17.20;99.90
63313;DHT22;49442;45.640;13.812;2022-11-04T07:43:58;17.20;99.90
63313;DHT22;49442;45.640;13.812;2022-11-04T07:46:25;17.30;99.90
63313;DHT22;49442;45.640;13.812;2022-11-04T07:48:50;17.30;99.90
63313;DHT22;49442;45.640;13.812;2022-11-04T07:51:17;17.30;99.90
63313;DHT22;49442;45.640;13.812;2022-11-04T07:53:43;17.30;99.90
63313;DHT22;49442;45.640;13.812;2022-11-04T07:56:10;17.40;99.90
63313;DHT22;49442;45.640;13.812;2022-11-04T07:58:39;17.30;99.90
63313;DHT22;49442;45.640;13.812;2022-11-04T08:01:06;17.30;99.90
63313;DHT22;49442;45.640;13.812;2022-11-04T08:03:32;17.30;99.90
63313;DHT22;49442;45.640;13.812;2022-11-04T08:05:58;17.30;99.90
63313;DHT22;49442;45.640;13.812;2022-11-04T08:08:24;17.40;99.90
63313;DHT22;49442;45.640;13.812;2022-11-04T08:10:51;17.40;99.90
63313;DHT22;49442;45.640;13.812;2022-11-04T08:13:17;17.40;99.90
63313;DHT22;49442;45.640;13.812;2022-11-04T08:15:42;17.40;99.90
63313;DHT22;49442;45.640;13.812;2022-11-04T08:18:08;17.40;99.90
63313;DHT22;49442;45.640;13.812;2022-11-04T08:20:33;17.50;99.90
63313;DHT22;49442;45.640;13.812;2022-11-04T08:22:59;17.50;99.90
63313;DHT22;49442;45.640;13.812;2022-11-04T08:25:24;17.60;99.90
63313;DHT22;49442;45.640;13.812;2022-11-04T08:27:50;17.70;99.90
63313;DHT22;49442;45.640;13.812;2022-11-04T08:30:15;17.70;99.90
63313;DHT22;49442;45.640;13.812;2022-11-04T08:32:41;17.80;99.90
63313;DHT22;49442;45.640;13.812;2022-11-04T08:35:07;17.90;99.90
63313;DHT22;49442;45.640;13.812;2022-11-04T08:37:33;17.90;99.90
63313;DHT22;49442;45.640;13.812;2022-11-04T08:39:59;17.90;99.90
63313;DHT22;49442;45.640;13.812;2022-11-04T08:42:24;17.90;99.90
63313;DHT22;49442;45.640;13.812;2022-11-04T08:44:50;18.00;99.90
63313;DHT22;49442;45.640;13.812;2022-11-04T08:47:16;18.00;99.90
63313;DHT22;49442;45.640;13.812;2022-11-04T08:49:42;17.90;99.90
63313;DHT22;49442;45.640;13.812;2022-11-04T08:52:07;17.90;99.90
63313;DHT22;49442;45.640;13.812;2022-11-04T08:54:34;17.90;99.90
63313;DHT22;49442;45.640;13.812;2022-11-04T08:57:00;17.90;99.90
63313;DHT22;49442;45.640;13.812;2022-11-04T08:59:25;17.90;99.90
63313;DHT22;49442;45.640;13.812;2022-11-04T09:01:51;18.00;99.90
63313;DHT22;49442;45.640;13.812;2022-11-04T09:04:16;18.00;99.90
63313;DHT22;49442;45.640;13.812;2022-11-04T09:06:43;18.00;99.90
63313;DHT22;49442;45.640;13.812;2022-11-04T09:09:11;18.00;99.90
63313;DHT22;49442;45.640;13.812;2022-11-04T09:11:38;18.00;99.90
63313;DHT22;49442;45.640;13.812;2022-11-04T09:14:04;18.00;99.90
63313;DHT22;49442;45.640;13.812;2022-11-04T09:16:30;18.00;99.90
63313;DHT22;49442;45.640;13.812;2022-11-04T09:18:57;18.00;99.90
63313;DHT22;49442;45.640;13.812;2022-11-04T09:21:23;18.00;99.90
63313;DHT22;49442;45.640;13.812;2022-11-04T09:23:49;18.00;99.90
63313;DHT22;49442;45.640;13.812;2022-11-04T09:26:15;18.00;99.90
63313;DHT22;49442;45.640;13.812;2022-11-04T09:28:40;18.00;99.90
63313;DHT22;49442;45.640;13.812;2022-11-04T09:31:07;18.00;99.90
63313;DHT22;49442;45.640;13.812;2022-11-04T09:33:33;18.00;99.90
63313;DHT22;49442;45.640;13.812;2022-11-04T09:35:58;18.00;99.90
63313;DHT22;49442;45.640;13.812;2022-11-04T09:38:24;18.00;99.90
63313;DHT22;49442;45.640;13.812;2022-11-04T09:40:50;18.00;99.90
63313;DHT22;49442;45.640;13.812;2022-11-04T09:45:50;17.90;99.90
63313;DHT22;49442;45.640;13.812;2022-11-04T09:48:37;17.80;99.90
63313;DHT22;49442;45.640;13.812;2022-11-04T09:51:04;17.80;99.90
63313;DHT22;49442;45.640;13.812;2022-11-04T09:53:39;17.80;99.90
63313;DHT22;49442;45.640;13.812;2022-11-04T09:56:09;17.70;99.90
63313;DHT22;49442;45.640;13.812;2022-11-04T09:58:36;17.70;99.90
63313;DHT22;49442;45.640;13.812;2022-11-04T10:01:38;17.70;99.90
63313;DHT22;49442;45.640;13.812;2022-11-04T10:16:49;17.60;99.90
63313;DHT22;49442;45.640;13.812;2022-11-04T10:19:24;17.60;99.90
63313;DHT22;49442;45.640;13.812;2022-11-04T10:22:02;17.70;99.90
63313;DHT22;49442;45.640;13.812;2022-11-04T10:27:04;17.70;99.90
63313;DHT22;49442;45.640;13.812;2022-11-04T10:29:55;17.70;99.90
63313;DHT22;49442;45.640;13.812;2022-11-04T10:32:20;17.60;99.90
63313;DHT22;49442;45.640;13.812;2022-11-04T10:35:29;17.50;99.90
63313;DHT22;49442;45.640;13.812;2022-11-04T10:37:35;16.80;99.90
63313;DHT22;49442;45.640;13.812;2022-11-04T10:40:15;15.90;99.90
63313;DHT22;49442;45.640;13.812;2022-11-04T10:42:42;15.40;99.90
63313;DHT22;49442;45.640;13.812;2022-11-04T10:45:10;15.10;99.90
63313;DHT22;49442;45.640;13.812;2022-11-04T10:47:39;15.00;99.90
63313;DHT22;49442;45.640;13.812;2022-11-04T10:52:38;15.00;99.90
63313;DHT22;49442;45.640;13.812;2022-11-04T10:57:47;15.20;99.90
63313;DHT22;49442;45.640;13.812;2022-11-04T11:00:31;15.30;99.90
63313;DHT22;49442;45.640;13.812;2022-11-04T11:02:56;15.40;99.90
63313;DHT22;49442;45.640;13.812;2022-11-04T11:05:23;15.50;99.90
63313;DHT22;49442;45.640;13.812;2022-11-04T11:07:51;15.70;99.90
63313;DHT22;49442;45.640;13.812;2022-11-04T11:10:25;15.90;99.90
63313;DHT22;49442;45.640;13.812;2022-11-04T11:12:55;16.10;99.90
63313;DHT22;49442;45.640;13.812;2022-11-04T11:15:35;16.20;99.90
63313;DHT22;49442;45.640;13.812;2022-11-04T11:20:26;16.60;99.90
63313;DHT22;49442;45.640;13.812;2022-11-04T11:22:52;16.70;99.90
63313;DHT22;49442;45.640;13.812;2022-11-04T11:27:54;16.70;99.90
63313;DHT22;49442;45.640;13.812;2022-11-04T11:30:25;16.90;99.90
63313;DHT22;49442;45.640;13.812;2022-11-04T11:32:52;16.90;99.90
63313;DHT22;49442;45.640;13.812;2022-11-04T11:35:24;17.00;99.90
63313;DHT22;49442;45.640;13.812;2022-11-04T11:37:51;17.10;99.90
63313;DHT22;49442;45.640;13.812;2022-11-04T11:40:50;17.00;99.90
63313;DHT22;49442;45.640;13.812;2022-11-04T11:43:14;17.10;99.90
63313;DHT22;49442;45.640;13.812;2022-11-04T11:45:46;17.10;99.90
63313;DHT22;49442;45.640;13.812;2022-11-04T11:50:57;17.20;99.90
63313;DHT22;49442;45.640;13.812;2022-11-04T11:53:24;17.30;99.90
63313;DHT22;49442;45.640;13.812;2022-11-04T11:55:53;17.30;99.90
63313;DHT22;49442;45.640;13.812;2022-11-04T11:58:24;17.40;99.90
63313;DHT22;49442;45.640;13.812;2022-11-04T12:00:59;17.50;99.90
63313;DHT22;49442;45.640;13.812;2022-11-04T12:03:30;17.40;99.90
63313;DHT22;49442;45.640;13.812;2022-11-04T12:13:36;17.50;99.90
63313;DHT22;49442;45.640;13.812;2022-11-04T12:21:05;17.50;99.90
63313;DHT22;49442;45.640;13.812;2022-11-04T12:35:56;17.10;99.90
63313;DHT22;49442;45.640;13.812;2022-11-04T12:40:57;16.90;99.90
63313;DHT22;49442;45.640;13.812;2022-11-04T12:44:10;16.80;99.90
63313;DHT22;49442;45.640;13.812;2022-11-04T12:46:21;16.80;99.90
63313;DHT22;49442;45.640;13.812;2022-11-04T12:48:56;16.80;99.90
63313;DHT22;49442;45.640;13.812;2022-11-04T12:56:41;16.80;99.90
63313;DHT22;49442;45.640;13.812;2022-11-04T13:01:44;16.90;99.90
63313;DHT22;49442;45.640;13.812;2022-11-04T13:04:19;17.00;99.90
63313;DHT22;49442;45.640;13.812;2022-11-04T13:09:16;17.10;99.90
63313;DHT22;49442;45.640;13.812;2022-11-04T13:17:13;17.40;99.90
63313;DHT22;49442;45.640;13.812;2022-11-04T13:19:42;17.40;99.90
63313;DHT22;49442;45.640;13.812;2022-11-04T13:22:12;17.30;99.90
63313;DHT22;49442;45.640;13.812;2022-11-04T13:24:39;17.20;99.90
63313;DHT22;49442;45.640;13.812;2022-11-04T13:27:16;17.30;99.90
63313;DHT22;49442;45.640;13.812;2022-11-04T13:29:43;17.60;99.90
63313;DHT22;49442;45.640;13.812;2022-11-04T13:32:19;17.80;99.90
63313;DHT22;49442;45.640;13.812;2022-11-04T13:35:00;17.80;99.90
63313;DHT22;49442;45.640;13.812;2022-11-04T13:38:02;17.80;99.90
63313;DHT22;49442;45.640;13.812;2022-11-04T13:40:21;17.80;99.90
63313;DHT22;49442;45.640;13.812;2022-11-04T13:45:17;17.80;99.90
63313;DHT22;49442;45.640;13.812;2022-11-04T13:47:46;17.90;99.90
63313;DHT22;49442;45.640;13.812;2022-11-04T13:50:34;17.80;99.90
63313;DHT22;49442;45.640;13.812;2022-11-04T13:53:00;17.80;99.90
63313;DHT22;49442;45.640;13.812;2022-11-04T13:55:26;17.70;99.90
63313;DHT22;49442;45.640;13.812;2022-11-04T14:00:22;17.70;99.90
63313;DHT22;49442;45.640;13.812;2022-11-04T14:02:49;17.70;99.90
63313;DHT22;49442;45.640;13.812;2022-11-04T14:05:43;17.70;99.90
63313;DHT22;49442;45.640;13.812;2022-11-04T14:08:07;17.70;99.90
63313;DHT22;49442;45.640;13.812;2022-11-04T14:18:30;17.60;99.90
63313;DHT22;49442;45.640;13.812;2022-11-04T14:23:30;17.70;99.90
63313;DHT22;49442;45.640;13.812;2022-11-04T14:26:16;17.70;99.90
63313;DHT22;49442;45.640;13.812;2022-11-04T14:28:45;17.60;99.90
63313;DHT22;49442;45.640;13.812;2022-11-04T14:31:12;17.60;99.90
63313;DHT22;49442;45.640;13.812;2022-11-04T14:38:39;17.50;99.90
63313;DHT22;49442;45.640;13.812;2022-11-04T14:43:47;17.40;99.90
63313;DHT22;49442;45.640;13.812;2022-11-04T14:46:19;17.40;99.90
63313;DHT22;49442;45.640;13.812;2022-11-04T14:48:48;17.40;99.90
63313;DHT22;49442;45.640;13.812;2022-11-04T14:51:27;17.30;99.90
63313;DHT22;49442;45.640;13.812;2022-11-04T14:56:36;17.00;99.90
63313;DHT22;49442;45.640;13.812;2022-11-04T14:59:05;16.80;99.90
63313;DHT22;49442;45.640;13.812;2022-11-04T15:01:32;16.60;99.90
63313;DHT22;49442;45.640;13.812;2022-11-04T15:04:03;16.40;99.90
63313;DHT22;49442;45.640;13.812;2022-11-04T15:06:29;16.30;99.90
63313;DHT22;49442;45.640;13.812;2022-11-04T15:08:57;16.20;99.90
63313;DHT22;49442;45.640;13.812;2022-11-04T15:11:24;16.10;99.90
63313;DHT22;49442;45.640;13.812;2022-11-04T15:16:37;15.90;99.90
63313;DHT22;49442;45.640;13.812;2022-11-04T15:19:02;15.80;99.90
63313;DHT22;49442;45.640;13.812;2022-11-04T15:21:36;15.70;99.90
63313;DHT22;49442;45.640;13.812;2022-11-04T15:24:02;15.70;99.90
63313;DHT22;49442;45.640;13.812;2022-11-04T15:26:28;15.70;99.90
63313;DHT22;49442;45.640;13.812;2022-11-04T15:28:56;15.70;99.90
63313;DHT22;49442;45.640;13.812;2022-11-04T15:31:24;15.70;99.90
63313;DHT22;49442;45.640;13.812;2022-11-04T15:33:56;15.60;99.90
63313;DHT22;49442;45.640;13.812;2022-11-04T15:36:24;15.60;99.90
63313;DHT22;49442;45.640;13.812;2022-11-04T15:39:07;15.50;99.90
63313;DHT22;49442;45.640;13.812;2022-11-04T15:41:36;15.30;99.90
63313;DHT22;49442;45.640;13.812;2022-11-04T15:46:51;15.30;99.90
63313;DHT22;49442;45.640;13.812;2022-11-04T15:49:19;15.20;99.90
63313;DHT22;49442;45.640;13.812;2022-11-04T15:51:45;15.10;99.90
63313;DHT22;49442;45.640;13.812;2022-11-04T15:54:17;15.00;99.90
63313;DHT22;49442;45.640;13.812;2022-11-04T15:56:45;14.90;99.90
63313;DHT22;49442;45.640;13.812;2022-11-04T15:59:16;14.70;99.90
63313;DHT22;49442;45.640;13.812;2022-11-04T16:01:46;14.60;99.90
63313;DHT22;49442;45.640;13.812;2022-11-04T16:04:12;14.60;99.90
63313;DHT22;49442;45.640;13.812;2022-11-04T16:06:40;14.60;99.90
63313;DHT22;49442;45.640;13.812;2022-11-04T16:11:38;14.50;99.90
63313;DHT22;49442;45.640;13.812;2022-11-04T16:14:22;14.40;99.90
63313;DHT22;49442;45.640;13.812;2022-11-04T16:16:50;14.30;99.90
63313;DHT22;49442;45.640;13.812;2022-11-04T16:19:17;14.20;99.90
63313;DHT22;49442;45.640;13.812;2022-11-04T16:21:44;14.10;99.90
63313;DHT22;49442;45.640;13.812;2022-11-04T16:26:36;14.00;99.90
63313;DHT22;49442;45.640;13.812;2022-11-04T16:29:05;14.00;99.90
63313;DHT22;49442;45.640;13.812;2022-11-04T16:31:32;14.00;99.90
63313;DHT22;49442;45.640;13.812;2022-11-04T16:33:58;14.00;99.90
63313;DHT22;49442;45.640;13.812;2022-11-04T16:36:24;14.00;99.90
63313;DHT22;49442;45.640;13.812;2022-11-04T16:38:56;14.00;99.90
63313;DHT22;49442;45.640;13.812;2022-11-04T16:41:22;14.00;99.90
63313;DHT22;49442;45.640;13.812;2022-11-04T16:43:48;13.90;99.90
63313;DHT22;49442;45.640;13.812;2022-11-04T16:46:14;13.90;99.90
63313;DHT22;49442;45.640;13.812;2022-11-04T16:48:40;13.90;99.90
63313;DHT22;49442;45.640;13.812;2022-11-04T16:51:05;14.00;99.90
63313;DHT22;49442;45.640;13.812;2022-11-04T16:53:31;14.00;99.90
63313;DHT22;49442;45.640;13.812;2022-11-04T16:55:56;13.90;99.90
63313;DHT22;49442;45.640;13.812;2022-11-04T16:58:22;13.90;99.90
63313;DHT22;49442;45.640;13.812;2022-11-04T17:00:48;13.90;99.90
63313;DHT22;49442;45.640;13.812;2022-11-04T17:03:17;13.90;99.90
63313;DHT22;49442;45.640;13.812;2022-11-04T17:05:45;13.80;99.90
63313;DHT22;49442;45.640;13.812;2022-11-04T17:08:11;13.80;99.90
63313;DHT22;49442;45.640;13.812;2022-11-04T17:10:37;13.80;99.90
63313;DHT22;49442;45.640;13.812;2022-11-04T17:13:02;13.80;99.90
63313;DHT22;49442;45.640;13.812;2022-11-04T17:15:28;13.80;99.90
63313;DHT22;49442;45.640;13.812;2022-11-04T17:17:53;13.70;99.90
63313;DHT22;49442;45.640;13.812;2022-11-04T17:20:19;13.70;99.90
63313;DHT22;49442;45.640;13.812;2022-11-04T17:22:45;13.60;99.90
63313;DHT22;49442;45.640;13.812;2022-11-04T17:25:15;13.60;99.90
63313;DHT22;49442;45.640;13.812;2022-11-04T17:27:41;13.60;99.90
63313;DHT22;49442;45.640;13.812;2022-11-04T17:30:07;13.60;99.90
63313;DHT22;49442;45.640;13.812;2022-11-04T17:32:33;13.60;99.90
63313;DHT22;49442;45.640;13.812;2022-11-04T17:34:58;13.70;99.90
63313;DHT22;49442;45.640;13.812;2022-11-04T17:37:24;13.60;99.90
63313;DHT22;49442;45.640;13.812;2022-11-04T17:39:49;13.60;99.90
63313;DHT22;49442;45.640;13.812;2022-11-04T17:42:15;13.60;99.90
63313;DHT22;49442;45.640;13.812;2022-11-04T17:44:59;13.60;99.90
63313;DHT22;49442;45.640;13.812;2022-11-04T17:47:24;13.70;99.90